Time;durP1;ratioP1;P1;durP2;ratioP2;P2;SDS_P1;SDS_P2;PMS_P1;PMS_P2;Temp;Humidity;BMP_temperature;BMP_pressure;BME280_temperature;BME280_humidity;BME280_pressure;Samples;Min_cycle;Max_cycle;Signal;HPM_P1;HPM_P2
2023/07/12 00:00:42;;;;;;;5.23;4.00;;;;;;;;;;5082154;28;20462;-59
2023/07/12 00:03:10;;;;;;;6.50;4.30;;;24.70;82.30;;;;;;5082364;28;20530;-60
2023/07/12 00:05:38;;;;;;;6.00;4.17;;;24.70;99.90;;;;;;5082004;28;20462;-58
2023/07/12 00:08:05;;;;;;;8.50;5.10;;;24.60;99.90;;;;;;5081084;28;20541;-59
2023/07/12 00:10:35;;;;;;;7.60;4.90;;;24.50;99.90;;;;;;5081122;28;20545;-60
2023/07/12 00:13:02;;;;;;;5.33;4.47;;;24.90;99.90;;;;;;5081293;28;20454;-59
2023/07/12 00:15:31;;;;;;;6.57;4.70;;;24.60;83.00;;;;;;5081405;28;20498;-60
2023/07/12 00:17:58;;;;;;;4.27;3.87;;;24.70;81.20;;;;;;5082154;28;20507;-60
2023/07/12 00:20:29;;;;;;;5.73;4.77;;;24.40;99.90;;;;;;5082639;28;20644;-60
2023/07/12 00:22:57;;;;;;;5.13;4.60;;;24.70;99.90;;;;;;5084864;28;20426;-55
2023/07/12 00:25:26;;;;;;;6.47;3.97;;;24.60;83.70;;;;;;5082748;28;20494;-59
2023/07/12 00:27:54;;;;;;;10.73;4.23;;;;;;;;;;5082189;28;20464;-59
2023/07/12 00:30:22;;;;;;;8.73;4.57;;;24.50;83.70;;;;;;5082880;28;20466;-61
2023/07/12 00:32:50;;;;;;;6.90;3.93;;;24.70;96.70;;;;;;5082732;28;20458;-59
2023/07/12 00:35:19;;;;;;;6.00;4.00;;;24.50;84.10;;;;;;5082572;28;20482;-59
2023/07/12 00:37:48;;;;;;;10.33;4.70;;;24.50;99.90;;;;;;5083076;28;20473;-60
2023/07/12 00:40:42;;;;;;;7.10;4.17;;;24.10;99.90;;;;;;5082675;28;20536;-58
2023/07/12 00:43:17;;;;;;;5.57;3.80;;;24.40;99.90;;;;;;5083052;28;20510;-60
2023/07/12 00:45:47;;;;;;;4.40;3.90;;;24.50;85.20;;;;;;5083493;28;20514;-60
2023/07/12 00:48:15;;;;;;;5.10;4.23;;;24.70;99.90;;;;;;5083145;28;20477;-60
2023/07/12 00:50:43;;;;;;;6.97;4.47;;;24.50;84.90;;;;;;5083261;28;20482;-59
2023/07/12 00:53:16;;;;;;;4.20;3.80;;;24.40;84.10;;;;;;5082404;28;20450;-58
2023/07/12 00:56:06;;;;;;;8.03;5.00;;;24.30;99.90;;;;;;5083139;28;20494;-57
2023/07/12 00:58:38;;;;;;;6.43;4.07;;;24.50;86.30;;;;;;5083976;28;20477;-60
2023/07/12 01:01:06;;;;;;;5.37;4.17;;;24.40;86.80;;;;;;5086626;28;20426;-57
2023/07/12 01:03:37;;;;;;;5.90;4.30;;;24.20;86.80;;;;;;5088349;28;20438;-60
2023/07/12 01:06:07;;;;;;;4.50;4.10;;;24.40;87.10;;;;;;5087721;28;20534;-61
2023/07/12 01:08:37;;;;;;;6.30;4.90;;;24.60;99.90;;;;;;5088458;28;20437;-59
2023/07/12 01:11:04;;;;;;;4.83;4.30;;;24.50;99.90;;;;;;5088047;28;20541;-60
2023/07/12 01:13:34;;;;;;;4.90;4.37;;;24.40;88.40;;;;;;5087057;28;20479;-60
2023/07/12 01:16:02;;;;;;;8.40;4.53;;;24.30;99.90;;;;;;5087385;28;20527;-59
2023/07/12 01:18:30;;;;;;;5.13;3.80;;;;;;;;;;5087053;28;20492;-58
2023/07/12 01:21:12;;;;;;;6.10;4.20;;;24.70;99.90;;;;;;5086943;28;20469;-59
2023/07/12 01:23:41;;;;;;;6.07;4.70;;;24.30;89.90;;;;;;5087370;28;20458;-59
2023/07/12 01:26:24;;;;;;;6.57;5.00;;;24.20;99.90;;;;;;5086545;28;20521;-60
2023/07/12 01:28:54;;;;;;;5.73;4.13;;;24.20;90.20;;;;;;5086382;28;20482;-60
2023/07/12 01:31:21;;;;;;;4.83;4.40;;;;;;;;;;5086458;28;20934;-59
2023/07/12 01:33:48;;;;;;;7.43;5.40;;;24.30;99.90;;;;;;5087007;28;20862;-59
2023/07/12 01:36:16;;;;;;;6.87;5.13;;;24.20;91.20;;;;;;5086457;28;20572;-62
2023/07/12 01:38:44;;;;;;;5.00;4.50;;;23.80;99.90;;;;;;5086305;28;20474;-60
2023/07/12 01:41:11;;;;;;;8.90;4.80;;;24.00;99.90;;;;;;5086729;28;20478;-58
2023/07/12 01:43:38;;;;;;;8.80;5.03;;;24.00;99.90;;;;;;5086040;28;20485;-55
2023/07/12 01:46:05;;;;;;;4.40;4.00;;;24.40;99.90;;;;;;5086063;28;20541;-60
2023/07/12 01:48:32;;;;;;;4.60;3.80;;;;;;;;;;5086714;28;20484;-59
2023/07/12 01:51:00;;;;;;;6.40;4.20;;;;;;;;;;5086647;28;20528;-60
2023/07/12 01:53:29;;;;;;;6.97;5.03;;;23.60;99.90;;;;;;5086507;28;20486;-60
2023/07/12 01:55:56;;;;;;;6.57;4.20;;;23.50;99.90;;;;;;5086258;28;20542;-60
2023/07/12 01:58:23;;;;;;;8.83;5.33;;;;;;;;;;5086573;28;20461;-59
2023/07/12 02:00:51;;;;;;;10.97;5.57;;;23.90;99.90;;;;;;5085854;28;20910;-59
2023/07/12 02:03:18;;;;;;;4.93;4.43;;;;;;;;;;5085998;28;20481;-59
2023/07/12 02:05:45;;;;;;;4.57;3.63;;;23.60;99.90;;;;;;5085917;28;20521;-61
2023/07/12 02:08:13;;;;;;;4.60;4.00;;;;;;;;;;5086081;28;20538;-59
2023/07/12 02:10:41;;;;;;;6.77;4.63;;;23.50;99.90;;;;;;5088690;28;20488;-59
2023/07/12 02:13:08;;;;;;;6.43;5.60;;;;;;;;;;5086426;28;20522;-59
2023/07/12 02:15:36;;;;;;;5.83;5.13;;;23.50;99.90;;;;;;5085915;28;20490;-60
2023/07/12 02:18:03;;;;;;;7.97;4.27;;;24.00;99.90;;;;;;5093906;28;20447;-60
2023/07/12 02:20:30;;;;;;;5.23;4.37;;;;;;;;;;5086572;28;20453;-59
2023/07/12 02:22:57;;;;;;;6.60;4.20;;;;;;;;;;5086528;28;20447;-59
2023/07/12 02:25:25;;;;;;;10.83;4.87;;;;;;;;;;5085739;28;20458;-59
2023/07/12 02:27:53;;;;;;;5.80;4.20;;;23.30;99.90;;;;;;5086495;28;20476;-60
2023/07/12 02:30:22;;;;;;;6.60;5.20;;;23.40;99.90;;;;;;5085772;28;20525;-61
2023/07/12 02:32:49;;;;;;;8.43;5.47;;;23.40;99.90;;;;;;5085902;28;20438;-60
2023/07/12 02:35:17;;;;;;;5.23;4.13;;;23.50;99.90;;;;;;5084769;28;21020;-60
2023/07/12 02:37:44;;;;;;;6.30;4.47;;;23.60;99.90;;;;;;5080416;28;20529;-60
2023/07/12 02:40:12;;;;;;;6.17;4.50;;;23.60;99.90;;;;;;5080309;28;20454;-61
2023/07/12 02:42:40;;;;;;;5.40;4.60;;;;;;;;;;5080033;28;20526;-60
2023/07/12 02:45:09;;;;;;;6.97;4.63;;;23.20;99.90;;;;;;5079882;28;20529;-60
2023/07/12 02:47:36;;;;;;;6.23;4.40;;;;;;;;;;5079838;28;20583;-59
2023/07/12 02:50:05;;;;;;;7.80;4.60;;;23.60;98.30;;;;;;5079687;28;20442;-60
2023/07/12 02:52:32;;;;;;;7.83;4.83;;;23.40;99.90;;;;;;5080309;28;20477;-59
2023/07/12 02:54:59;;;;;;;4.90;4.23;;;;;;;;;;5080025;28;20533;-59
2023/07/12 02:57:27;;;;;;;5.43;4.53;;;23.60;97.30;;;;;;5079583;28;20478;-60
2023/07/12 02:59:57;;;;;;;7.37;5.17;;;;;;;;;;5079919;28;20466;-59
2023/07/12 03:02:25;;;;;;;6.40;5.00;;;23.60;99.90;;;;;;5079694;28;20525;-60
2023/07/12 03:04:52;;;;;;;7.67;5.40;;;23.60;99.90;;;;;;5080572;28;20965;-59
2023/07/12 03:07:19;;;;;;;6.53;5.47;;;23.80;99.90;;;;;;5079875;28;20494;-57
2023/07/12 03:09:46;;;;;;;8.70;5.67;;;23.60;99.90;;;;;;5080111;28;20442;-60
2023/07/12 03:12:13;;;;;;;10.13;5.20;;;;;;;;;;5080371;28;20570;-60
2023/07/12 03:14:40;;;;;;;6.53;4.50;;;;;;;;;;5080271;28;20521;-59
2023/07/12 03:17:07;;;;;;;8.03;5.37;;;23.90;99.90;;;;;;5079907;28;20478;-60
2023/07/12 03:19:36;;;;;;;7.63;5.60;;;23.60;99.90;;;;;;5079309;28;20506;-58
2023/07/12 03:22:04;;;;;;;5.43;4.93;;;;;;;;;;5079069;28;20462;-59
2023/07/12 03:24:31;;;;;;;9.60;5.20;;;;;;;;;;5078887;28;20549;-59
2023/07/12 03:26:58;;;;;;;6.23;5.17;;;;;;;;;;5079781;28;20458;-59
2023/07/12 03:29:25;;;;;;;7.47;5.47;;;23.90;99.90;;;;;;5079412;28;20558;-60
2023/07/12 03:31:53;;;;;;;9.17;5.47;;;23.80;99.90;;;;;;5079412;28;20521;-60
2023/07/12 03:34:19;;;;;;;7.40;5.00;;;23.70;99.90;;;;;;5079349;28;20457;-60
2023/07/12 03:36:54;;;;;;;8.23;6.60;;;23.60;99.90;;;;;;5079501;28;20536;-61
2023/07/12 03:39:21;;;;;;;5.67;5.17;;;23.70;99.90;;;;;;5079618;28;20440;-59
2023/07/12 03:41:48;;;;;;;8.10;5.13;;;;;;;;;;5078765;28;20457;-60
2023/07/12 03:44:15;;;;;;;6.83;5.30;;;23.90;99.90;;;;;;5078697;28;20508;-60
2023/07/12 03:46:42;;;;;;;5.13;4.37;;;;;;;;;;5079273;28;20453;-60
2023/07/12 03:49:09;;;;;;;7.00;6.30;;;23.80;99.90;;;;;;5079873;28;20560;-61
2023/07/12 03:51:36;;;;;;;6.97;5.87;;;;;;;;;;5080513;28;20482;-58
2023/07/12 03:54:05;;;;;;;6.70;5.50;;;;;;;;;;5085985;28;20526;-59
2023/07/12 03:56:32;;;;;;;9.23;5.83;;;;;;;;;;5085093;28;21029;-59
2023/07/12 03:59:02;;;;;;;7.00;5.40;;;;;;;;;;5084340;28;20541;-57
2023/07/12 04:01:29;;;;;;;6.20;5.60;;;;;;;;;;5084112;28;20430;-59
2023/07/12 04:03:57;;;;;;;6.87;5.37;;;;;;;;;;5084817;28;20466;-59
2023/07/12 04:06:24;;;;;;;6.60;5.53;;;;;;;;;;5085159;28;20550;-59
2023/07/12 04:08:51;;;;;;;11.90;6.33;;;23.70;99.90;;;;;;5084719;28;20557;-62
2023/07/12 04:11:26;;;;;;;9.30;5.70;;;23.60;99.90;;;;;;5084263;28;20519;-59
2023/07/12 04:13:52;;;;;;;11.50;6.43;;;23.80;99.90;;;;;;5084368;28;20437;-58
2023/07/12 04:16:20;;;;;;;11.10;6.17;;;;;;;;;;5084781;28;20570;-60
2023/07/12 04:18:48;;;;;;;6.20;5.50;;;23.90;99.90;;;;;;5084802;28;20457;-59
2023/07/12 04:21:15;;;;;;;5.67;4.70;;;24.00;99.90;;;;;;5084334;28;20542;-59
2023/07/12 04:23:42;;;;;;;8.57;6.47;;;23.70;99.90;;;;;;5084303;28;20474;-61
2023/07/12 04:26:11;;;;;;;7.70;6.87;;;23.90;99.90;;;;;;5084426;28;20438;-57
2023/07/12 04:28:40;;;;;;;6.50;5.73;;;24.00;99.90;;;;;;5083590;28;20473;-59
2023/07/12 04:31:12;;;;;;;8.23;6.77;;;24.20;99.90;;;;;;5078197;28;20507;-59
2023/07/12 04:33:39;;;;;;;7.87;6.47;;;;;;;;;;5078124;28;20446;-59
2023/07/12 04:36:07;;;;;;;10.07;6.50;;;24.10;99.90;;;;;;5080569;28;20474;-60
2023/07/12 04:38:34;;;;;;;7.67;6.03;;;;;;;;;;5083115;28;20506;-62
2023/07/12 04:41:02;;;;;;;7.53;6.77;;;24.00;99.90;;;;;;5082937;28;20533;-59
2023/07/12 04:43:29;;;;;;;9.00;6.70;;;24.00;99.90;;;;;;5081885;28;20453;-58
2023/07/12 04:45:58;;;;;;;7.47;6.37;;;24.10;99.90;;;;;;5081956;28;20509;-60
2023/07/12 04:48:25;;;;;;;7.40;6.20;;;24.70;99.90;;;;;;5082174;28;20446;-59
2023/07/12 04:50:54;;;;;;;8.63;6.43;;;23.90;99.90;;;;;;5082140;28;20466;-59
2023/07/12 04:53:21;;;;;;;13.00;7.80;;;24.20;99.90;;;;;;5081848;28;20518;-60
2023/07/12 04:55:50;;;;;;;10.10;7.10;;;23.60;99.90;;;;;;5082293;28;20516;-61
2023/07/12 04:58:17;;;;;;;8.33;7.47;;;24.10;99.90;;;;;;5082306;28;20586;-60
2023/07/12 05:00:44;;;;;;;9.13;6.77;;;;;;;;;;5082411;28;20529;-59
2023/07/12 05:03:15;;;;;;;11.80;7.57;;;24.10;99.90;;;;;;5082502;28;20517;-59
2023/07/12 05:05:42;;;;;;;7.93;5.93;;;;;;;;;;5082275;28;20430;-59
2023/07/12 05:08:10;;;;;;;10.50;7.03;;;24.20;99.90;;;;;;5082095;28;20497;-59
2023/07/12 05:10:39;;;;;;;16.70;7.10;;;24.20;99.90;;;;;;5081318;28;20940;-59
2023/07/12 05:13:06;;;;;;;10.57;6.70;;;;;;;;;;5082360;28;20470;-60
2023/07/12 05:15:33;;;;;;;8.53;7.33;;;24.70;99.90;;;;;;5081440;28;20437;-61
2023/07/12 05:18:00;;;;;;;8.60;6.93;;;;;;;;;;5082362;28;20484;-60
2023/07/12 05:20:29;;;;;;;11.90;7.03;;;24.40;99.90;;;;;;5090517;28;20466;-59
2023/07/12 05:22:56;;;;;;;8.83;7.03;;;;;;;;;;5087233;28;20470;-59
2023/07/12 05:25:23;;;;;;;9.43;7.57;;;;;;;;;;5088431;28;20438;-60
2023/07/12 05:27:50;;;;;;;13.87;8.60;;;;;;;;;;5087362;28;20518;-62
2023/07/12 05:30:17;;;;;;;11.73;9.00;;;;;;;;;;5086406;28;20447;-59
2023/07/12 05:32:44;;;;;;;9.40;8.10;;;24.70;99.90;;;;;;5087167;28;20470;-59
2023/07/12 05:35:14;;;;;;;17.43;7.30;;;;;;;;;;5086425;28;20481;-61
2023/07/12 05:37:43;;;;;;;16.30;7.10;;;24.40;99.90;;;;;;5087291;28;20530;-59
2023/07/12 05:40:10;;;;;;;10.97;7.00;;;24.90;99.90;;;;;;5087688;28;20438;-60
2023/07/12 05:42:40;;;;;;;11.13;7.13;;;24.90;99.90;;;;;;5087092;28;20446;-60
2023/07/12 05:45:07;;;;;;;8.40;6.83;;;;;;;;;;5087211;28;20498;-60
2023/07/12 05:47:34;;;;;;;9.50;8.13;;;24.90;99.90;;;;;;5086111;28;20470;-58
2023/07/12 05:50:02;;;;;;;12.50;8.13;;;24.90;99.90;;;;;;5087682;28;20442;-59
2023/07/12 05:52:29;;;;;;;11.87;7.33;;;;;;;;;;5086821;28;20529;-59
2023/07/12 05:54:57;;;;;;;13.90;7.43;;;24.90;99.90;;;;;;5087039;28;20542;-61
2023/07/12 05:57:27;;;;;;;27.63;7.80;;;;;;;;;;5087612;28;20573;-59
2023/07/12 05:59:54;;;;;;;13.43;7.47;;;;;;;;;;5086609;28;20466;-60
2023/07/12 06:02:21;;;;;;;7.87;7.07;;;25.00;99.90;;;;;;5086233;28;20481;-60
2023/07/12 06:04:48;;;;;;;8.10;6.57;;;;;;;;;;5085738;28;20493;-60
2023/07/12 06:07:15;;;;;;;11.90;6.80;;;;;;;;;;5086607;28;20517;-61
2023/07/12 06:09:45;;;;;;;9.40;8.40;;;24.70;99.90;;;;;;5086095;28;20459;-58
2023/07/12 06:12:14;;;;;;;9.47;6.53;;;24.60;99.90;;;;;;5085935;28;20493;-61
2023/07/12 06:14:41;;;;;;;11.37;6.87;;;24.80;99.90;;;;;;5086272;28;20502;-60
2023/07/12 06:17:08;;;;;;;9.50;7.03;;;25.00;99.90;;;;;;5086106;28;20576;-57
2023/07/12 06:19:34;;;;;;;7.60;6.57;;;24.90;99.90;;;;;;5085763;28;20442;-61
2023/07/12 06:22:02;;;;;;;11.73;7.40;;;;;;;;;;5086174;28;20549;-60
2023/07/12 06:24:28;;;;;;;10.43;7.47;;;25.00;99.90;;;;;;5085767;28;20505;-62
2023/07/12 06:26:56;;;;;;;8.70;7.50;;;;;;;;;;5087184;28;20454;-61
2023/07/12 06:29:24;;;;;;;9.30;6.63;;;24.90;99.90;;;;;;5096836;28;20442;-58
2023/07/12 06:31:54;;;;;;;8.27;6.87;;;24.70;99.90;;;;;;5089436;28;20501;-56
2023/07/12 06:34:21;;;;;;;9.30;6.13;;;;;;;;;;5086727;28;20457;-59
2023/07/12 06:36:48;;;;;;;10.53;7.47;;;;;;;;;;5085143;28;20482;-60
2023/07/12 06:39:16;;;;;;;8.30;6.93;;;;;;;;;;5085612;28;20466;-59
2023/07/12 06:41:43;;;;;;;8.60;5.80;;;25.20;99.90;;;;;;5085618;28;20438;-59
2023/07/12 06:44:10;;;;;;;8.07;6.23;;;;;;;;;;5086151;28;20502;-60
2023/07/12 06:46:38;;;;;;;6.97;6.27;;;25.90;99.90;;;;;;5085317;28;20453;-59
2023/07/12 06:49:06;;;;;;;7.13;6.30;;;;;;;;;;5084529;28;20529;-60
2023/07/12 06:51:32;;;;;;;10.07;6.03;;;25.90;99.90;;;;;;5090223;28;20431;-60
2023/07/12 06:53:59;;;;;;;6.37;5.70;;;26.30;99.90;;;;;;5084480;28;20470;-60
2023/07/12 06:56:26;;;;;;;6.33;5.33;;;26.00;99.90;;;;;;5084717;28;20541;-59
2023/07/12 06:58:53;;;;;;;7.70;6.30;;;26.50;99.90;;;;;;5084119;28;20556;-61
2023/07/12 07:01:20;;;;;;;11.20;5.20;;;;;;;;;;5084091;28;20497;-61
2023/07/12 07:03:48;;;;;;;6.23;5.60;;;26.20;99.90;;;;;;5085060;28;20439;-61
2023/07/12 07:06:17;;;;;;;9.30;5.70;;;;;;;;;;5084835;28;20446;-63
2023/07/12 07:08:44;;;;;;;6.33;5.23;;;;;;;;;;5085032;28;20442;-59
2023/07/12 07:11:11;;;;;;;8.17;5.10;;;27.20;99.90;;;;;;5084575;28;20454;-58
2023/07/12 07:13:38;;;;;;;4.53;4.10;;;;;;;;;;5084333;28;20498;-60
2023/07/12 07:16:06;;;;;;;6.67;5.57;;;;;;;;;;5085780;28;20514;-60
2023/07/12 07:18:33;;;;;;;7.17;5.30;;;;;;;;;;5084704;28;20530;-61
2023/07/12 07:21:01;;;;;;;7.30;5.50;;;27.30;99.90;;;;;;5084515;28;20445;-59
2023/07/12 07:23:28;;;;;;;8.37;6.00;;;;;;;;;;5083734;28;20529;-61
2023/07/12 07:25:55;;;;;;;6.17;5.03;;;26.90;99.90;;;;;;5084647;28;20466;-60
2023/07/12 07:28:23;;;;;;;8.20;5.97;;;;;;;;;;5084714;28;20447;-59
2023/07/12 07:30:55;;;;;;;6.83;5.90;;;26.70;99.90;;;;;;5084583;28;20466;-60
2023/07/12 07:33:22;;;;;;;8.77;5.70;;;;;;;;;;5084341;28;20435;-61
2023/07/12 07:35:49;;;;;;;8.13;7.07;;;;;;;;;;5084807;28;20446;-60
2023/07/12 07:38:17;;;;;;;8.80;5.73;;;26.40;99.90;;;;;;5085177;28;20474;-60
2023/07/12 07:40:45;;;;;;;6.37;5.77;;;26.50;99.90;;;;;;5084080;28;20446;-60
2023/07/12 07:43:14;;;;;;;8.20;6.37;;;26.20;99.90;;;;;;5084031;28;20538;-62
2023/07/12 07:45:42;;;;;;;9.57;7.23;;;26.30;99.90;;;;;;5083931;28;20438;-60
2023/07/12 07:48:10;;;;;;;9.40;6.13;;;;;;;;;;5089608;28;20439;-56
2023/07/12 07:50:37;;;;;;;9.20;6.33;;;26.30;99.90;;;;;;5090159;28;20504;-60
2023/07/12 07:53:07;;;;;;;10.03;6.50;;;;;;;;;;5084259;28;20442;-60
2023/07/12 07:55:41;;;;;;;8.70;6.23;;;26.40;99.90;;;;;;5084579;28;20527;-60
2023/07/12 07:58:12;;;;;;;8.70;6.40;;;26.40;99.90;;;;;;5085036;28;20511;-59
2023/07/12 08:00:39;;;;;;;7.20;5.50;;;26.20;99.90;;;;;;5084162;28;20743;-60
2023/07/12 08:03:07;;;;;;;8.93;5.90;;;26.40;99.90;;;;;;5084226;28;20473;-59
2023/07/12 08:05:35;;;;;;;5.90;5.30;;;26.80;99.90;;;;;;5082914;28;20521;-59
2023/07/12 08:08:02;;;;;;;9.77;5.97;;;26.80;99.90;;;;;;5082804;28;20929;-62
2023/07/12 08:10:29;;;;;;;8.37;5.40;;;;;;;;;;5082529;28;20510;-61
2023/07/12 08:12:58;;;;;;;6.57;5.80;;;26.40;99.90;;;;;;5083917;28;20433;-62
2023/07/12 08:15:26;;;;;;;10.30;5.53;;;26.00;99.90;;;;;;5083476;28;20906;-61
2023/07/12 08:17:54;;;;;;;6.13;4.77;;;26.40;99.90;;;;;;5083318;28;20540;-59
2023/07/12 08:20:22;;;;;;;6.57;5.57;;;27.60;99.90;;;;;;5083435;28;20481;-59
2023/07/12 08:22:50;;;;;;;6.03;4.33;;;;;;;;;;5082436;28;20442;-60
2023/07/12 08:25:17;;;;;;;4.83;4.33;;;28.80;99.90;;;;;;5081980;28;20482;-60
2023/07/12 08:27:44;;;;;;;6.53;4.80;;;;;;;;;;5081248;28;20555;-58
2023/07/12 08:30:13;;;;;;;12.73;4.53;;;28.30;99.90;;;;;;5082492;28;20506;-60
2023/07/12 08:32:40;;;;;;;3.90;3.37;;;28.30;99.90;;;;;;5088075;28;20458;-61
2023/07/12 08:35:09;;;;;;;5.90;5.33;;;28.50;99.90;;;;;;5083246;28;20474;-59
2023/07/12 08:37:36;;;;;;;4.17;3.77;;;;;;;;;;5080470;28;20490;-60
2023/07/12 08:40:03;;;;;;;4.40;4.00;;;;;;;;;;5080744;28;20815;-60
2023/07/12 08:42:36;;;;;;;6.90;4.50;;;28.70;99.90;;;;;;5080169;28;20446;-60
2023/07/12 08:45:15;;;;;;;4.90;4.40;;;28.80;99.90;;;;;;5080959;28;20505;-62
2023/07/12 08:47:45;;;;;;;5.57;3.90;;;29.60;99.90;;;;;;5081543;28;20454;-61
2023/07/12 08:50:14;;;;;;;5.77;4.23;;;29.20;99.90;;;;;;5081193;28;20567;-61
2023/07/12 08:52:41;;;;;;;4.60;3.47;;;28.40;99.90;;;;;;5080576;28;20908;-59
2023/07/12 08:55:14;;;;;;;4.37;3.97;;;27.90;99.90;;;;;;5080385;28;20502;-59
2023/07/12 08:57:42;;;;;;;5.40;4.03;;;27.40;99.90;;;;;;5081380;28;20462;-59
2023/07/12 09:00:14;;;;;;;3.80;3.40;;;27.20;99.90;;;;;;5081689;28;20453;-59
2023/07/12 09:02:41;;;;;;;3.73;2.90;;;;;;;;;;5081462;28;20560;-62
2023/07/12 09:05:15;;;;;;;6.43;4.00;;;26.60;99.90;;;;;;5081884;28;20521;-60
2023/07/12 09:07:50;;;;;;;4.87;3.30;;;27.30;99.90;;;;;;5083107;28;20458;-61
2023/07/12 09:10:29;;;;;;;6.10;3.73;;;28.10;99.90;;;;;;5089599;28;20410;-60
2023/07/12 09:12:59;;;;;;;3.30;3.00;;;29.10;99.90;;;;;;5083404;28;20542;-59
2023/07/12 09:15:33;;;;;;;4.10;3.80;;;29.80;99.90;;;;;;5081508;28;20530;-60
2023/07/12 09:18:02;;;;;;;4.20;2.80;;;30.50;99.90;;;;;;5092451;28;20488;-60
2023/07/12 09:20:32;;;;;;;3.57;2.80;;;31.50;97.40;;;;;;5083526;28;20474;-60
2023/07/12 09:23:00;;;;;;;3.73;2.77;;;32.30;93.40;;;;;;5085028;28;20446;-60
2023/07/12 09:25:35;;;;;;;3.10;2.80;;;33.20;99.90;;;;;;5083194;28;20472;-59
2023/07/12 09:28:02;;;;;;;3.53;3.20;;;33.80;99.90;;;;;;5081948;28;20426;-60
2023/07/12 09:30:30;;;;;;;4.53;2.90;;;34.10;99.90;;;;;;5080972;28;20544;-59
2023/07/12 09:33:00;;;;;;;3.27;2.97;;;34.00;81.70;;;;;;5082474;28;20446;-60
2023/07/12 09:35:33;;;;;;;5.30;3.60;;;34.00;89.60;;;;;;5083000;28;20818;-59
2023/07/12 09:38:03;;;;;;;3.40;2.63;;;34.20;99.90;;;;;;5083267;28;20497;-61
2023/07/12 09:40:36;;;;;;;5.00;3.03;;;34.50;99.90;;;;;;5083527;28;20489;-59
2023/07/12 09:43:13;;;;;;;3.53;2.97;;;34.20;78.70;;;;;;5083571;28;20441;-59
2023/07/12 09:45:42;;;;;;;3.40;2.70;;;34.20;79.20;;;;;;5082237;28;20813;-61
2023/07/12 09:48:28;;;;;;;3.30;3.00;;;34.00;98.50;;;;;;5082046;28;20460;-59
2023/07/12 09:51:08;;;;;;;4.53;4.13;;;34.10;99.30;;;;;;5083605;28;20553;-61
2023/07/12 09:53:41;;;;;;;2.87;2.60;;;34.70;76.80;;;;;;5083318;28;20482;-59
2023/07/12 09:56:19;;;;;;;3.13;2.50;;;34.40;96.60;;;;;;5083001;28;20516;-60
2023/07/12 09:58:56;;;;;;;3.03;2.73;;;34.60;73.00;;;;;;5083166;28;20472;-60
2023/07/12 10:01:36;;;;;;;3.30;2.80;;;33.80;90.80;;;;;;5081853;28;21010;-59
2023/07/12 10:04:19;;;;;;;3.43;2.90;;;33.30;99.90;;;;;;5082129;28;20840;-59
2023/07/12 10:06:51;;;;;;;3.90;2.90;;;32.60;80.00;;;;;;5083024;28;20793;-60
2023/07/12 10:09:27;;;;;;;3.10;2.80;;;32.20;80.40;;;;;;5081739;28;20477;-60
2023/07/12 10:12:01;;;;;;;9.10;2.90;;;31.90;99.90;;;;;;5081985;28;20819;-59
2023/07/12 10:14:34;;;;;;;3.07;2.77;;;31.10;99.90;;;;;;5082067;28;20433;-57
2023/07/12 10:17:02;;;;;;;4.33;3.37;;;31.20;85.80;;;;;;5082876;28;20498;-59
2023/07/12 10:19:33;;;;;;;3.43;2.23;;;30.80;99.90;;;;;;5082778;28;20813;-59
2023/07/12 10:22:04;;;;;;;4.93;2.90;;;30.70;88.20;;;;;;5082738;28;20463;-59
2023/07/12 10:24:35;;;;;;;2.50;1.90;;;30.40;99.90;;;;;;5082612;28;20446;-61
2023/07/12 10:27:06;;;;;;;5.47;2.30;;;30.20;99.90;;;;;;5082799;28;20776;-60
2023/07/12 10:29:43;;;;;;;2.87;2.37;;;29.90;90.70;;;;;;5082313;28;20484;-60
2023/07/12 10:32:21;;;;;;;2.97;2.70;;;29.10;91.70;;;;;;5082599;28;20524;-58
2023/07/12 10:34:54;;;;;;;3.27;2.97;;;28.60;99.90;;;;;;5084002;28;20866;-60
2023/07/12 10:37:28;;;;;;;4.43;3.30;;;28.30;93.70;;;;;;5087407;28;20462;-59
2023/07/12 10:39:55;;;;;;;7.60;2.67;;;29.00;98.40;;;;;;5083767;28;20493;-59
2023/07/12 10:42:31;;;;;;;2.57;2.37;;;29.10;99.90;;;;;;5084022;28;20449;-59
2023/07/12 10:45:01;;;;;;;3.20;2.57;;;29.60;93.50;;;;;;5083933;28;20525;-60
2023/07/12 10:47:32;;;;;;;3.80;2.60;;;29.80;92.00;;;;;;5083297;28;20474;-60
2023/07/12 10:50:02;;;;;;;2.30;2.00;;;29.70;99.90;;;;;;5083153;28;20427;-60
2023/07/12 10:52:32;;;;;;;3.27;2.37;;;30.20;91.10;;;;;;5083900;28;20447;-60
2023/07/12 10:55:36;;;;;;;3.00;2.50;;;30.00;99.90;;;;;;5083137;28;20446;-59
2023/07/12 10:58:26;;;;;;;2.43;2.23;;;30.30;99.90;;;;;;5083160;28;20790;-60
2023/07/12 11:00:55;;;;;;;3.60;2.17;;;30.30;99.90;;;;;;5083221;28;20458;-62
2023/07/12 11:03:34;;;;;;;2.40;2.20;;;30.50;94.10;;;;;;5082355;28;20453;-59
2023/07/12 11:06:08;;;;;;;2.10;1.80;;;30.30;99.90;;;;;;5081680;28;20466;-59
2023/07/12 11:08:45;;;;;;;2.53;1.87;;;30.50;99.90;;;;;;5083319;28;20433;-58
2023/07/12 11:11:49;;;;;;;2.67;2.30;;;30.60;88.20;;;;;;5080149;28;20488;-60
2023/07/12 11:14:26;;;;;;;2.13;1.93;;;30.90;99.90;;;;;;5079733;28;20428;-57
2023/07/12 11:17:12;;;;;;;2.47;2.10;;;30.80;99.90;;;;;;5079581;28;20519;-59
2023/07/12 11:20:03;;;;;;;2.70;2.00;;;31.00;99.90;;;;;;5079872;28;20535;-59
2023/07/12 11:22:58;;;;;;;3.43;2.33;;;31.20;85.10;;;;;;5079374;28;20802;-55
2023/07/12 11:25:32;;;;;;;7.57;2.23;;;31.00;99.90;;;;;;5080234;28;20486;-60
2023/07/12 11:28:03;;;;;;;2.80;2.07;;;31.00;82.40;;;;;;5079522;28;20553;-61
2023/07/12 11:30:43;;;;;;;2.63;2.07;;;30.20;99.90;;;;;;5078955;28;20435;-58
2023/07/12 11:33:30;;;;;;;3.23;2.20;;;29.90;83.50;;;;;;5079434;28;20517;-60
2023/07/12 11:36:01;;;;;;;2.57;1.73;;;27.50;82.00;;;;;;5086134;28;20501;-59
2023/07/12 11:38:30;;;;;;;2.43;1.60;;;29.90;99.90;;;;;;5084962;28;20470;-58
2023/07/12 11:41:03;;;;;;;2.27;1.60;;;30.00;80.90;;;;;;5084646;28;20486;-61
2023/07/12 11:43:37;;;;;;;2.20;1.93;;;30.70;99.90;;;;;;5084621;28;20567;-59
2023/07/12 11:46:13;;;;;;;2.97;1.90;;;30.40;81.60;;;;;;5084755;28;20433;-61
2023/07/12 11:48:44;;;;;;;5.50;3.27;;;30.40;80.50;;;;;;5085247;28;20518;-57
2023/07/12 11:51:19;;;;;;;2.90;2.47;;;30.10;99.90;;;;;;5083847;28;20431;-60
2023/07/12 11:53:52;;;;;;;2.80;1.80;;;29.90;99.60;;;;;;5084889;28;20481;-59
2023/07/12 11:56:20;;;;;;;2.97;2.07;;;29.60;99.20;;;;;;5084180;28;20427;-60
2023/07/12 11:58:47;;;;;;;3.47;1.80;;;;;;;;;;5083464;28;20510;-60
2023/07/12 12:01:17;;;;;;;3.20;1.60;;;29.90;94.60;;;;;;5084971;28;20462;-59
2023/07/12 12:03:48;;;;;;;2.10;1.90;;;29.30;99.90;;;;;;5081866;28;20446;-59
2023/07/12 12:06:15;;;;;;;1.60;1.43;;;29.20;99.90;;;;;;5080817;28;20457;-60
2023/07/12 12:08:48;;;;;;;2.07;1.50;;;28.80;99.90;;;;;;5081032;28;20499;-58
2023/07/12 12:11:15;;;;;;;2.10;1.80;;;28.60;99.90;;;;;;5080801;28;20485;-60
2023/07/12 12:13:48;;;;;;;3.40;2.27;;;29.50;99.90;;;;;;5081154;28;20426;-60
2023/07/12 12:16:26;;;;;;;3.40;2.20;;;28.80;99.90;;;;;;5078781;28;20461;-61
2023/07/12 12:18:56;;;;;;;2.63;2.00;;;28.50;99.90;;;;;;5078539;28;20470;-62
2023/07/12 12:21:24;;;;;;;2.33;2.00;;;28.70;85.40;;;;;;5079523;28;20461;-61
2023/07/12 12:23:55;;;;;;;2.90;1.87;;;29.00;99.90;;;;;;5087902;28;20462;-57
2023/07/12 12:26:25;;;;;;;4.57;2.10;;;29.00;99.90;;;;;;5084647;28;20491;-61
2023/07/12 12:28:57;;;;;;;2.87;1.70;;;28.40;99.90;;;;;;5084665;28;20450;-59
2023/07/12 12:31:26;;;;;;;2.87;1.90;;;28.90;99.90;;;;;;5085781;28;20454;-60
2023/07/12 12:34:03;;;;;;;4.70;1.60;;;28.50;91.80;;;;;;5085096;28;20485;-59
2023/07/12 12:36:32;;;;;;;2.83;1.90;;;28.80;99.90;;;;;;5083798;28;20470;-59
2023/07/12 12:39:03;;;;;;;2.80;1.63;;;28.90;99.90;;;;;;5084399;28;20514;-61
2023/07/12 12:41:39;;;;;;;2.17;1.80;;;28.80;99.90;;;;;;5081575;28;20441;-59
2023/07/12 12:44:15;;;;;;;2.57;1.97;;;29.00;99.90;;;;;;5081841;28;20441;-59
2023/07/12 12:46:42;;;;;;;1.90;1.60;;;29.10;99.90;;;;;;5081982;28;20422;-57
2023/07/12 12:49:20;;;;;;;3.87;1.57;;;28.40;79.70;;;;;;5086903;28;20464;-58
2023/07/12 12:51:49;;;;;;;4.20;1.67;;;28.50;99.00;;;;;;5082851;28;20469;-59
2023/07/12 12:54:16;;;;;;;3.30;1.87;;;28.30;99.90;;;;;;5084379;28;20525;-59
2023/07/12 12:56:43;;;;;;;1.67;1.40;;;28.00;99.90;;;;;;5083653;28;20474;-59
2023/07/12 12:59:13;;;;;;;2.47;1.60;;;28.40;87.40;;;;;;5086460;28;20478;-61
2023/07/12 13:01:43;;;;;;;2.80;1.80;;;28.50;80.00;;;;;;5086739;28;20500;-61
2023/07/12 13:04:12;;;;;;;6.00;1.53;;;28.70;99.90;;;;;;5086426;28;20910;-60
2023/07/12 13:06:39;;;;;;;1.87;1.70;;;;;;;;;;5086601;28;20521;-63
2023/07/12 13:09:21;;;;;;;6.50;1.50;;;28.80;77.20;;;;;;5086609;28;20442;-60
2023/07/12 13:11:49;;;;;;;1.40;1.10;;;29.00;97.10;;;;;;5085707;28;20450;-60
2023/07/12 13:14:17;;;;;;;2.40;1.50;;;29.00;99.90;;;;;;5085701;28;20466;-63
2023/07/12 13:16:45;;;;;;;3.93;1.37;;;28.80;77.90;;;;;;5085654;28;20456;-60
2023/07/12 13:19:14;;;;;;;3.23;1.63;;;28.50;76.50;;;;;;5085422;28;20478;-60
2023/07/12 13:21:42;;;;;;;1.97;1.40;;;28.50;98.60;;;;;;5085489;28;20500;-60
2023/07/12 13:24:10;;;;;;;1.73;1.10;;;28.20;99.10;;;;;;5085243;28;20438;-59